Impacts METAR Board
IDs:

KMOB - Mobile Rgnl, AL, US

Updated at: 0900 UTC 17 Aug 2018
Potential Impact None Slight Moderate High
Time 16/21Z 16/22Z 16/23Z 17/00Z 17/01Z 17/02Z 17/03Z 17/04Z 17/05Z 17/06Z 17/07Z 17/08Z 17/09Z
Temp84 86 84 83 82 81 80 80 80 79 79 79 78
Dewpt73 77 75 75 76 75 76 76 76 75 75 75 75
Altim30.10 30.11 30.11 30.11 30.13 30.11 30.12 30.14 30.13 30.13 30.13 30.13 30.12
VIS8 6 10 10 10 10 10 10 10 10 10 10 10
CIG47 95 250 250 250 -- -- -- -- -- -- -- --
CoverBKNOVCBKNBKNBKNSCTFEWFEWSCTCLRCLRCLRSCT
FltCatVFRVFRVFRVFRVFRVFRVFRVFRVFRVFRVFRVFRVFR
WX---RA----------------------
WDir140170160150170180180120160170130160190
WSpd12 11 10 7 3 6 5 4 6 5 4 5 6
WGst-- -- -- -- -- -- -- -- -- -- -- -- --
Raw hourly METARs
KMOB 162056Z 14012KT 8SM FEW025 BKN047 BKN060 29/23 A3010 RMK AO2 SLP190 T02890228 56007
KMOB 162156Z 17011KT 6SM -RA SCT045TCU SCT055 OVC095 30/25 A3011 RMK AO2 LTG DSNT W-NE RAB08 SLP191 TCU NE CB DSNT NE AND W P0016 T03000250
KMOB 162256Z 16010KT 10SM SCT022CB SCT045 BKN250 29/24 A3011 RMK AO2 LTG DSNT NE AND NW RAE36 SLP192 CB SW MOV N CB DSNT ALQDS P0000 T02890239
KMOB 162356Z 15007KT 10SM SCT024 SCT036 BKN250 28/24 A3011 RMK AO2 SLP193 CB DSNT ALQDS TCU DSNT NE 60016 T02830239 10328 20278 53003
KMOB 170056Z 17003KT 10SM FEW022 SCT150 BKN250 28/24 A3013 RMK AO2 SLP200 CB DSNT ALQDS T02780244
KMOB 170156Z 18006KT 10SM SCT200 27/24 A3011 RMK AO2 SLP194 T02720239
KMOB 170256Z 18005KT 10SM FEW020 FEW150 27/24 A3012 RMK AO2 SLP197 T02670244 51004
KMOB 170356Z 12004KT 10SM FEW021 27/24 A3014 RMK AO2 SLP201 T02670244
KMOB 170456Z AUTO 16006KT 10SM SCT026 27/24 A3013 RMK AO2 SLP200 T02670244
KMOB 170556Z AUTO 17005KT 10SM CLR 26/24 A3013 RMK AO2 LTG DSNT SW SLP199 T02610239 10283 20256 403280250 50002
KMOB 170656Z AUTO 13004KT 10SM CLR 26/24 A3013 RMK AO2 SLP199 T02610239
KMOB 170756Z AUTO 16005KT 10SM CLR 26/24 A3013 RMK AO2 LTG DSNT SW AND W SLP198 T02610239
KMOB 170856Z AUTO 19006KT 10SM FEW019 SCT026 26/24 A3012 RMK AO2 SLP197 T02560239 58002



Page loaded:  09:32 UTC  |   02:32 AM Pacific  |   03:32 AM Mountain  |   04:32 AM Central  |   05:32 AM Eastern

 

ADVISORIES

FORECASTS

FORECASTS

OBSERVATIONS

USER TOOLS

ABOUT US